createdAt,value
2018-02-22T00:00:52.113Z,26.90
2018-02-22T00:03:19.699Z,31.80
2018-02-22T00:05:47.235Z,29.17
2018-02-22T00:08:14.798Z,33.73
2018-02-22T00:10:42.332Z,30.73
2018-02-22T00:13:09.869Z,34.93
2018-02-22T00:15:37.419Z,28.30
2018-02-22T00:18:04.987Z,31.53
2018-02-22T00:20:32.539Z,27.70
2018-02-22T00:23:00.088Z,29.67
2018-02-22T00:25:28.412Z,23.70
2018-02-22T00:27:55.965Z,27.20
2018-02-22T00:30:23.521Z,27.27
2018-02-22T00:32:51.094Z,26.03
2018-02-22T00:35:18.646Z,26.13
2018-02-22T00:37:46.209Z,30.73
2018-02-22T00:40:13.732Z,27.77
2018-02-22T00:42:41.310Z,27.90
2018-02-22T00:45:08.871Z,30.40
2018-02-22T00:47:36.393Z,26.07
2018-02-22T00:50:03.923Z,25.37
2018-02-22T00:52:31.463Z,28.47
2018-02-22T00:54:59.074Z,27.50
2018-02-22T00:57:26.614Z,23.43
2018-02-22T00:59:54.209Z,28.50
2018-02-22T01:02:21.776Z,28.00
2018-02-22T01:04:49.317Z,26.80
2018-02-22T01:07:16.891Z,27.47
2018-02-22T01:09:44.496Z,28.57
2018-02-22T01:12:12.039Z,27.50
2018-02-22T01:14:39.574Z,29.67
2018-02-22T01:17:07.151Z,28.77
2018-02-22T01:19:34.708Z,31.37
2018-02-22T02:02:10.632Z,25.70
2018-02-22T02:04:38.186Z,25.57
2018-02-22T02:07:05.723Z,31.97
2018-02-22T02:09:33.243Z,33.07
2018-02-22T02:12:00.853Z,26.47
2018-02-22T02:14:28.370Z,34.10
2018-02-22T02:16:55.930Z,27.73
2018-02-22T03:17:02.941Z,29.63
2018-02-22T03:19:30.494Z,29.10
2018-02-22T03:21:58.074Z,27.53
2018-02-22T03:24:25.570Z,32.67
2018-02-22T03:58:30.030Z,34.47
2018-02-22T04:00:57.540Z,34.17
2018-02-22T04:03:25.081Z,27.73
2018-02-22T04:05:53.914Z,28.83
2018-02-22T04:08:21.433Z,30.47
2018-02-22T04:10:48.925Z,27.37
2018-02-22T04:13:16.516Z,32.43
2018-02-22T04:15:44.093Z,28.77
2018-02-22T04:18:11.586Z,33.43
2018-02-22T04:20:39.103Z,31.53
2018-02-22T04:23:06.601Z,32.23
2018-02-22T04:25:34.152Z,31.60
2018-02-22T04:28:01.714Z,35.03
2018-02-22T04:30:29.232Z,31.50
2018-02-22T04:32:56.815Z,34.10
2018-02-22T04:35:24.431Z,35.70
2018-02-22T04:37:52.011Z,35.87
2018-02-22T04:40:19.584Z,30.43
2018-02-22T04:42:47.104Z,35.67
2018-02-22T04:45:14.832Z,38.40
2018-02-22T04:47:42.389Z,36.03
2018-02-22T04:50:09.900Z,35.20
2018-02-22T04:52:37.458Z,33.23
2018-02-22T04:55:04.969Z,36.57
2018-02-22T04:57:32.573Z,35.07
2018-02-22T05:00:00.116Z,38.20
2018-02-22T05:02:28.470Z,35.40
2018-02-22T05:04:56.008Z,33.97
2018-02-22T05:07:23.547Z,39.57
2018-02-22T05:09:51.085Z,39.50
2018-02-22T05:12:18.637Z,41.83
2018-02-22T05:14:46.185Z,43.47
2018-02-22T05:17:13.690Z,41.47
2018-02-22T05:19:41.200Z,39.43
2018-02-22T05:22:08.764Z,40.63
2018-02-22T05:24:36.296Z,44.60
2018-02-22T05:27:03.904Z,42.93
2018-02-22T05:29:31.434Z,40.70
2018-02-22T05:31:58.933Z,45.13
2018-02-22T05:34:26.509Z,40.70
2018-02-22T05:36:54.165Z,44.97
2018-02-22T05:39:21.863Z,46.50
2018-02-22T05:41:49.613Z,38.87
2018-02-22T05:44:17.165Z,35.07
2018-02-22T05:46:44.666Z,39.70
2018-02-22T05:49:12.158Z,41.63
2018-02-22T05:51:39.684Z,43.87
2018-02-22T05:54:08.110Z,47.03
2018-02-22T05:56:35.616Z,46.23
2018-02-22T05:59:05.270Z,48.77
2018-02-22T06:01:32.789Z,50.43
2018-02-22T06:04:00.333Z,45.40
2018-02-22T06:06:27.837Z,45.23
2018-02-22T06:08:55.386Z,46.47
2018-02-22T06:11:22.929Z,46.10
2018-02-22T06:13:50.552Z,46.50
2018-02-22T06:16:18.046Z,56.20
2018-02-22T06:18:45.601Z,55.87
2018-02-22T06:21:13.111Z,65.83
2018-02-22T06:23:40.673Z,61.80
2018-02-22T06:26:08.220Z,61.70
2018-02-22T06:28:35.797Z,58.80
2018-02-22T06:31:03.320Z,59.80
2018-02-22T06:33:36.489Z,66.30
2018-02-22T06:36:04.161Z,53.37
2018-02-22T06:38:31.713Z,57.07
2018-02-22T06:40:59.273Z,64.17
2018-02-22T06:43:27.178Z,64.47
2018-02-22T06:45:54.818Z,67.93
2018-02-22T06:48:22.461Z,61.30
2018-02-22T06:50:50.030Z,61.33
2018-02-22T06:53:17.569Z,60.33
2018-02-22T06:55:45.098Z,57.77
2018-02-22T06:58:12.659Z,55.00
2018-02-22T07:00:40.228Z,62.67
2018-02-22T07:03:07.824Z,56.33
2018-02-22T07:05:35.379Z,63.80
2018-02-22T07:08:03.069Z,62.03
2018-02-22T07:10:30.616Z,68.90
2018-02-22T07:12:59.501Z,65.00
2018-02-22T07:15:27.054Z,71.10
2018-02-22T07:17:54.605Z,66.37
2018-02-22T07:20:24.738Z,74.00
2018-02-22T07:22:52.305Z,69.67
2018-02-22T07:25:19.826Z,71.07
2018-02-22T07:27:47.427Z,66.87
2018-02-22T07:30:15.031Z,70.93
2018-02-22T07:32:42.563Z,68.80
2018-02-22T07:35:10.118Z,66.80
2018-02-22T07:37:37.693Z,66.23
2018-02-22T07:40:05.285Z,65.67
2018-02-22T07:42:32.778Z,61.17
2018-02-22T07:45:00.294Z,69.00
2018-02-22T07:47:27.820Z,67.23
2018-02-22T07:49:55.406Z,69.43
2018-02-22T07:52:22.919Z,63.73
2018-02-22T07:54:50.441Z,68.30
2018-02-22T07:57:18.005Z,79.97
2018-02-22T07:59:45.506Z,70.17
2018-02-22T08:02:13.007Z,69.03
2018-02-22T08:04:40.536Z,79.23
2018-02-22T08:07:08.059Z,72.80
2018-02-22T08:09:35.557Z,77.07
2018-02-22T08:12:03.075Z,74.23
2018-02-22T08:14:30.651Z,74.30
2018-02-22T08:16:58.187Z,72.93
2018-02-22T08:19:25.717Z,67.70
2018-02-22T08:21:53.214Z,73.97
2018-02-22T08:24:20.733Z,50.67
2018-02-22T08:26:48.254Z,58.37
2018-02-22T08:29:15.803Z,55.70
2018-02-22T08:31:43.328Z,63.97
2018-02-22T08:34:10.866Z,63.47
2018-02-22T08:36:38.376Z,59.63
2018-02-22T08:39:05.903Z,58.23
2018-02-22T08:41:33.420Z,59.63
2018-02-22T08:44:00.940Z,63.97
2018-02-22T08:46:28.497Z,68.33
2018-02-22T08:48:56.009Z,70.10
2018-02-22T08:51:23.612Z,54.20
2018-02-22T08:53:51.127Z,59.60
2018-02-22T08:56:18.648Z,54.33
2018-02-22T08:58:46.145Z,61.63
2018-02-22T09:01:13.684Z,63.03
2018-02-22T09:03:41.202Z,57.40
2018-02-22T09:06:08.713Z,53.97
2018-02-22T09:08:36.238Z,51.53
2018-02-22T09:11:03.759Z,52.63
2018-02-22T09:13:31.282Z,42.23
2018-02-22T09:15:58.776Z,43.97
2018-02-22T09:18:26.290Z,49.17
2018-02-22T09:20:53.813Z,40.43
2018-02-22T09:23:21.323Z,41.50
2018-02-22T09:25:48.822Z,38.73
2018-02-22T09:28:16.342Z,35.37
2018-02-22T09:30:43.868Z,43.23
2018-02-22T09:33:11.364Z,36.43
2018-02-22T09:35:38.873Z,35.47
2018-02-22T09:38:06.378Z,36.47
2018-02-22T09:40:33.954Z,36.37
2018-02-22T09:43:01.466Z,31.23
2018-02-22T09:45:28.990Z,35.43
2018-02-22T09:47:56.515Z,32.67
2018-02-22T09:50:24.058Z,38.57
2018-02-22T09:52:51.566Z,38.10
2018-02-22T09:55:19.081Z,41.07
2018-02-22T09:57:46.633Z,42.77
2018-02-22T10:00:14.197Z,37.27
2018-02-22T10:02:41.742Z,43.33
2018-02-22T10:05:09.268Z,38.53
2018-02-22T10:07:36.781Z,39.30
2018-02-22T10:10:04.343Z,40.17
2018-02-22T10:12:32.037Z,39.53
2018-02-22T10:14:59.581Z,38.03
2018-02-22T10:17:27.070Z,38.97
2018-02-22T10:19:54.587Z,39.23
2018-02-22T10:22:22.104Z,35.80
2018-02-22T10:24:49.602Z,40.80
2018-02-22T10:27:17.152Z,46.30
2018-02-22T10:29:44.659Z,43.17
2018-02-22T10:32:12.170Z,37.13
2018-02-22T10:34:39.693Z,36.90
2018-02-22T10:37:07.207Z,30.50
2018-02-22T10:39:34.736Z,40.80
2018-02-22T10:42:02.262Z,41.80
2018-02-22T10:44:29.781Z,32.83
2018-02-22T10:46:57.320Z,40.70
2018-02-22T10:49:24.833Z,35.63
2018-02-22T10:51:52.340Z,40.23
2018-02-22T10:54:19.819Z,47.67
2018-02-22T10:56:47.349Z,35.23
2018-02-22T10:59:14.840Z,35.33
2018-02-22T11:01:47.920Z,41.93
2018-02-22T11:04:15.417Z,37.93
2018-02-22T11:06:42.936Z,37.97
2018-02-22T11:09:10.448Z,31.93
2018-02-22T11:11:37.949Z,35.77
2018-02-22T11:14:05.504Z,34.67
2018-02-22T11:16:33.087Z,34.50
2018-02-22T11:19:00.622Z,30.17
2018-02-22T11:21:28.134Z,36.97
2018-02-22T11:23:55.657Z,34.63
2018-02-22T11:26:23.199Z,31.30
2018-02-22T11:28:50.713Z,30.40
2018-02-22T11:31:18.217Z,29.83
2018-02-22T11:33:45.782Z,27.83
2018-02-22T11:36:13.326Z,23.77
2018-02-22T11:38:40.855Z,25.43
2018-02-22T11:41:08.410Z,27.90
2018-02-22T11:43:35.975Z,28.60
2018-02-22T11:46:03.536Z,23.10
2018-02-22T11:48:31.065Z,24.53
2018-02-22T11:50:58.647Z,26.53
2018-02-22T11:53:26.187Z,24.37
2018-02-22T11:55:53.749Z,25.67
2018-02-22T11:58:21.277Z,24.60
2018-02-22T12:00:48.843Z,24.73
2018-02-22T12:03:16.368Z,24.13
2018-02-22T12:05:43.892Z,23.57
2018-02-22T12:08:11.415Z,26.10
2018-02-22T12:10:38.925Z,23.37
2018-02-22T12:13:06.426Z,20.50
2018-02-22T12:15:33.917Z,26.33
2018-02-22T12:18:01.446Z,24.83
2018-02-22T12:20:28.963Z,21.73
2018-02-22T12:22:56.485Z,21.77
2018-02-22T12:25:24.049Z,19.63
2018-02-22T12:27:51.581Z,23.23
2018-02-22T12:30:19.102Z,22.70
2018-02-22T12:32:46.668Z,18.57
2018-02-22T12:35:14.168Z,18.77
2018-02-22T12:37:41.722Z,17.07
2018-02-22T12:40:09.236Z,16.00
2018-02-22T12:42:36.758Z,15.30
2018-02-22T12:45:04.292Z,15.90
2018-02-22T12:47:31.848Z,16.13
2018-02-22T12:49:59.408Z,19.50
2018-02-22T12:52:26.912Z,17.37
2018-02-22T12:54:54.482Z,19.40
2018-02-22T12:57:22.009Z,17.83
2018-02-22T12:59:49.573Z,13.47
2018-02-22T13:02:17.080Z,16.70
2018-02-22T13:04:44.604Z,14.37
2018-02-22T13:07:12.160Z,17.07
2018-02-22T13:09:39.709Z,11.47
2018-02-22T13:12:07.269Z,15.23
2018-02-22T13:14:34.750Z,13.43
2018-02-22T13:17:02.279Z,16.37
2018-02-22T13:19:29.793Z,16.57
2018-02-22T13:21:57.311Z,15.83
2018-02-22T13:24:24.852Z,12.90
2018-02-22T13:26:52.389Z,13.30
2018-02-22T13:29:21.720Z,14.40
2018-02-22T13:31:49.265Z,15.87
2018-02-22T13:34:24.113Z,14.20
2018-02-22T13:36:51.602Z,14.90
2018-02-22T13:39:19.465Z,14.13
2018-02-22T13:41:47.059Z,12.27
2018-02-22T13:44:26.381Z,17.30
2018-02-22T13:46:53.919Z,14.60
2018-02-22T13:49:33.031Z,13.73
2018-02-22T13:52:00.575Z,15.43
2018-02-22T13:54:28.062Z,16.60
2018-02-22T13:57:07.313Z,13.80
2018-02-22T13:59:34.856Z,13.63
2018-02-22T14:02:14.157Z,16.73
2018-02-22T14:04:41.658Z,12.03
2018-02-22T14:07:09.205Z,11.23
2018-02-22T14:09:36.737Z,13.60
2018-02-22T14:12:04.266Z,11.80
2018-02-22T14:14:31.785Z,11.23
2018-02-22T14:16:59.319Z,13.10
2018-02-22T14:19:26.814Z,27.47
2018-02-22T14:21:54.422Z,17.17
2018-02-22T14:24:21.935Z,12.07
2018-02-22T14:26:49.518Z,11.97
2018-02-22T14:29:17.032Z,14.13
2018-02-22T14:31:44.537Z,12.07
2018-02-22T14:34:12.077Z,15.40
2018-02-22T14:36:39.736Z,12.80
2018-02-22T14:39:07.253Z,16.47
2018-02-22T14:41:34.810Z,11.37
2018-02-22T14:44:02.306Z,11.37
2018-02-22T14:46:29.831Z,12.67
2018-02-22T14:48:57.332Z,12.77
2018-02-22T14:51:24.843Z,11.63
2018-02-22T14:53:52.325Z,7.73
2018-02-22T14:56:19.853Z,11.50
2018-02-22T14:58:47.424Z,11.23
2018-02-22T15:01:14.963Z,14.40
2018-02-22T15:03:42.465Z,11.67
2018-02-22T15:06:09.951Z,10.50
2018-02-22T15:08:37.505Z,10.60
2018-02-22T15:11:05.032Z,12.33
2018-02-22T15:13:32.536Z,13.13
2018-02-22T15:16:00.088Z,10.27
2018-02-22T15:18:27.633Z,11.00
2018-02-22T15:20:55.148Z,12.27
2018-02-22T15:23:22.632Z,12.33
2018-02-22T15:25:57.149Z,11.07
2018-02-22T15:28:24.633Z,11.33
2018-02-22T15:30:52.180Z,11.07
2018-02-22T15:33:19.684Z,14.83
2018-02-22T15:35:47.194Z,12.17
2018-02-22T15:38:14.682Z,9.70
2018-02-22T15:40:42.229Z,11.57
2018-02-22T15:43:09.772Z,13.60
2018-02-22T15:45:37.326Z,8.63
2018-02-22T15:48:04.836Z,11.27
2018-02-22T15:50:32.361Z,11.77
2018-02-22T15:52:59.904Z,11.07
2018-02-22T15:55:27.461Z,9.63
2018-02-22T15:57:54.963Z,9.53
2018-02-22T16:00:22.534Z,10.17
2018-02-22T16:02:50.072Z,8.47
2018-02-22T16:05:17.594Z,10.67
2018-02-22T16:07:45.090Z,9.67
2018-02-22T16:10:12.581Z,12.57
2018-02-22T16:12:40.164Z,11.40
2018-02-22T16:15:07.653Z,9.63
2018-02-22T16:17:35.229Z,11.13
2018-02-22T16:20:03.609Z,15.93
2018-02-22T16:22:31.163Z,10.47
2018-02-22T16:24:58.754Z,10.77
2018-02-22T16:27:26.277Z,10.60
2018-02-22T16:29:53.842Z,11.60
2018-02-22T16:32:21.377Z,12.07
2018-02-22T16:34:49.078Z,11.37
2018-02-22T16:37:16.711Z,11.47
2018-02-22T16:39:45.394Z,12.73
2018-02-22T16:42:13.067Z,11.03
2018-02-22T16:44:40.610Z,12.10
2018-02-22T16:47:08.344Z,12.53
2018-02-22T16:49:35.906Z,12.53
2018-02-22T16:52:03.602Z,12.63
2018-02-22T16:54:31.296Z,13.87
2018-02-22T16:57:01.076Z,13.23
2018-02-22T16:59:28.594Z,12.77
2018-02-22T17:01:56.128Z,13.60
2018-02-22T17:04:23.666Z,13.13
2018-02-22T17:06:51.256Z,12.27
2018-02-22T17:09:18.813Z,15.20
2018-02-22T17:11:46.506Z,13.83
2018-02-22T17:14:14.076Z,14.70
2018-02-22T17:16:41.566Z,15.40
2018-02-22T17:19:09.085Z,14.27
2018-02-22T17:21:36.673Z,16.37
2018-02-22T17:24:04.258Z,17.63
2018-02-22T17:26:37.394Z,17.77
2018-02-22T17:29:10.362Z,19.90
2018-02-22T17:31:43.601Z,20.10
2018-02-22T17:34:11.221Z,24.03
2018-02-22T17:36:57.478Z,17.30
2018-02-22T17:39:28.033Z,20.77
2018-02-22T17:41:55.569Z,25.47
2018-02-22T17:44:23.079Z,21.97
2018-02-22T17:46:51.728Z,22.90
2018-02-22T17:49:19.337Z,26.13
2018-02-22T17:51:46.913Z,24.77
2018-02-22T17:54:14.480Z,21.53
2018-02-22T17:56:41.984Z,25.93
2018-02-22T17:59:09.646Z,24.87
2018-02-22T18:01:37.297Z,23.40
2018-02-22T18:04:04.825Z,26.50
2018-02-22T18:06:32.579Z,30.67
2018-02-22T18:09:00.274Z,27.70
2018-02-22T18:11:29.207Z,30.17
2018-02-22T18:13:56.780Z,30.00
2018-02-22T18:16:24.376Z,34.20
2018-02-22T18:18:51.924Z,30.93
2018-02-22T18:21:19.449Z,31.10
2018-02-22T18:23:46.986Z,33.80
2018-02-22T18:26:14.531Z,32.57
2018-02-22T18:28:44.237Z,30.30
2018-02-22T18:31:11.786Z,33.73
2018-02-22T18:33:39.429Z,32.57
2018-02-22T18:36:06.964Z,36.17
2018-02-22T18:38:40.231Z,36.93
2018-02-22T18:41:07.731Z,32.57
2018-02-22T18:43:41.114Z,32.90
2018-02-22T18:46:08.668Z,32.77
2018-02-22T18:48:36.232Z,33.80
2018-02-22T18:51:03.776Z,34.57
2018-02-22T18:53:31.365Z,36.53
2018-02-22T18:55:58.930Z,39.67
2018-02-22T18:58:26.448Z,37.17
2018-02-22T19:00:53.969Z,36.33
2018-02-22T19:03:21.500Z,39.60
2018-02-22T19:05:49.105Z,41.00
2018-02-22T19:08:16.657Z,36.10
2018-02-22T19:10:44.155Z,37.67
2018-02-22T19:13:11.689Z,36.33
2018-02-22T19:15:39.237Z,34.57
2018-02-22T19:18:06.742Z,36.17
2018-02-22T19:20:34.257Z,33.70
2018-02-22T19:23:01.838Z,40.50
2018-02-22T19:25:29.439Z,37.47
2018-02-22T19:27:57.043Z,42.13
2018-02-22T19:30:24.609Z,38.63
2018-02-22T19:32:52.164Z,41.20
2018-02-22T19:35:19.761Z,39.87
2018-02-22T19:37:47.272Z,39.37
2018-02-22T19:40:14.782Z,39.40
2018-02-22T19:42:42.291Z,38.13
2018-02-22T19:45:09.795Z,44.13
2018-02-22T19:47:37.314Z,46.90
2018-02-22T19:50:04.830Z,42.03
2018-02-22T19:52:32.368Z,42.20
2018-02-22T19:54:59.884Z,42.40
2018-02-22T19:57:27.447Z,41.67
2018-02-22T19:59:54.981Z,43.37
2018-02-22T20:02:22.524Z,40.60
2018-02-22T20:04:50.033Z,44.80
2018-02-22T20:07:17.560Z,42.53
2018-02-22T20:09:45.047Z,44.43
2018-02-22T20:12:12.567Z,42.33
2018-02-22T20:14:40.069Z,41.33
2018-02-22T20:17:07.631Z,47.40
2018-02-22T20:19:35.124Z,45.57
2018-02-22T20:22:02.654Z,45.30
2018-02-22T20:24:30.173Z,48.37
2018-02-22T20:26:57.724Z,47.43
2018-02-22T20:29:25.237Z,51.43
2018-02-22T20:31:52.745Z,47.13
2018-02-22T20:34:20.304Z,48.67
2018-02-22T20:36:47.914Z,47.20
2018-02-22T20:39:16.234Z,46.70
2018-02-22T20:41:43.737Z,49.90
2018-02-22T20:44:11.339Z,44.87
2018-02-22T20:46:38.920Z,53.73
2018-02-22T20:49:06.443Z,47.43
2018-02-22T20:51:36.916Z,52.50
2018-02-22T20:54:04.527Z,52.93
2018-02-22T20:56:32.076Z,54.23
2018-02-22T20:58:59.574Z,51.37
2018-02-22T21:01:27.133Z,52.40
2018-02-22T21:03:54.651Z,53.93
2018-02-22T21:06:22.393Z,49.87
2018-02-22T21:08:49.895Z,56.93
2018-02-22T21:11:18.216Z,57.83
2018-02-22T21:13:45.808Z,53.83
2018-02-22T21:16:13.440Z,52.50
2018-02-22T21:18:40.975Z,53.60
2018-02-22T21:21:08.500Z,53.67
2018-02-22T21:23:36.071Z,49.80
2018-02-22T21:26:03.768Z,49.03
2018-02-22T21:28:31.289Z,51.27
2018-02-22T21:30:58.780Z,50.37
2018-02-22T21:33:26.497Z,47.03
2018-02-22T21:35:54.024Z,54.20
2018-02-22T21:38:21.523Z,46.60
2018-02-22T21:40:49.296Z,51.90
2018-02-22T21:43:16.954Z,55.07
2018-02-22T21:45:44.639Z,52.70
2018-02-22T21:48:12.503Z,50.57
2018-02-22T21:50:40.037Z,51.87
2018-02-22T21:53:07.639Z,54.07
2018-02-22T21:55:35.273Z,53.60
2018-02-22T21:58:02.934Z,55.43
2018-02-22T22:00:30.414Z,52.90
2018-02-22T22:02:58.253Z,56.33
2018-02-22T22:05:26.136Z,53.90
2018-02-22T22:07:53.739Z,60.77
2018-02-22T22:10:21.236Z,49.43
2018-02-22T22:12:48.752Z,51.80
2018-02-22T22:15:16.250Z,55.63
2018-02-22T22:17:43.811Z,53.57
2018-02-22T22:20:11.318Z,55.23
2018-02-22T22:22:38.843Z,62.83
2018-02-22T22:25:06.381Z,54.97
2018-02-22T22:27:34.122Z,56.23
2018-02-22T22:30:01.639Z,57.93
2018-02-22T22:32:29.166Z,56.23
2018-02-22T22:34:56.675Z,56.90
2018-02-22T22:37:24.396Z,61.43
2018-02-22T22:39:51.943Z,59.10
2018-02-22T22:42:19.486Z,59.30
2018-02-22T22:44:46.993Z,56.87
2018-02-22T22:47:14.550Z,61.03
2018-02-22T22:49:43.606Z,59.90
2018-02-22T22:52:11.176Z,63.17
2018-02-22T22:54:39.456Z,60.17
2018-02-22T22:57:06.983Z,58.30
2018-02-22T22:59:34.482Z,58.90
2018-02-22T23:02:02.036Z,59.37
2018-02-22T23:04:29.659Z,57.63
2018-02-22T23:06:57.158Z,54.53
2018-02-22T23:09:24.893Z,58.43
2018-02-22T23:11:52.584Z,64.27
2018-02-22T23:14:20.168Z,65.53
2018-02-22T23:16:48.148Z,64.80
2018-02-22T23:19:15.837Z,62.20
2018-02-22T23:21:43.366Z,54.27
2018-02-22T23:24:10.909Z,58.40
2018-02-22T23:26:38.482Z,63.40
2018-02-22T23:29:06.016Z,57.23
2018-02-22T23:31:33.567Z,54.67
2018-02-22T23:34:01.136Z,53.40
2018-02-22T23:36:28.666Z,57.70
2018-02-22T23:38:57.088Z,56.10
2018-02-22T23:41:30.261Z,60.33
2018-02-22T23:43:57.785Z,60.10
2018-02-22T23:46:25.299Z,58.47
2018-02-22T23:48:52.818Z,46.30
2018-02-22T23:51:20.327Z,54.27
2018-02-22T23:53:47.854Z,52.87
2018-02-22T23:56:15.377Z,55.10
2018-02-22T23:58:42.976Z,54.83
